createdAt,value
2023-03-23T00:07:49.561Z,473.00
2023-03-23T00:08:49.633Z,474.00
2023-03-23T00:09:50.665Z,473.00
2023-03-23T00:16:49.832Z,474.00
2023-03-23T00:17:49.849Z,474.00
2023-03-23T00:18:49.906Z,474.00
2023-03-23T00:19:49.909Z,473.00
2023-03-23T00:20:49.955Z,471.00
2023-03-23T00:21:50.035Z,474.00
2023-03-23T00:22:50.111Z,475.00
2023-03-23T00:23:50.216Z,477.00
2023-03-23T00:24:50.315Z,475.00
2023-03-23T00:25:50.400Z,475.00
2023-03-23T00:26:50.510Z,475.00
2023-03-23T00:27:50.588Z,475.00
2023-03-23T00:28:50.690Z,474.00
2023-03-23T00:29:50.762Z,473.00
2023-03-23T00:30:50.794Z,472.00
2023-03-23T00:31:50.888Z,471.00
2023-03-23T00:32:50.962Z,473.00
2023-03-23T00:33:51.070Z,471.00
2023-03-23T00:34:51.137Z,469.00
2023-03-23T00:35:51.329Z,472.00
2023-03-23T00:36:51.308Z,470.00
2023-03-23T00:37:51.373Z,472.00
2023-03-23T00:38:51.743Z,472.00
2023-03-23T00:47:52.196Z,468.00
2023-03-23T00:52:52.596Z,473.00
2023-03-23T00:53:52.634Z,474.00
2023-03-23T00:54:52.733Z,471.00
2023-03-23T00:55:52.841Z,473.00
2023-03-23T00:56:52.909Z,472.00
2023-03-23T00:57:52.992Z,472.00
2023-03-23T00:58:53.084Z,473.00
2023-03-23T00:59:53.153Z,473.00
2023-03-23T01:00:53.211Z,472.00
2023-03-23T01:01:53.326Z,471.00
2023-03-23T01:02:53.390Z,474.00
2023-03-23T01:03:53.448Z,471.00
2023-03-23T01:04:53.523Z,469.00
2023-03-23T01:05:53.593Z,468.00
2023-03-23T01:06:53.639Z,470.00
2023-03-23T01:07:53.722Z,469.00
2023-03-23T01:08:53.809Z,469.00
2023-03-23T01:09:53.898Z,469.00
2023-03-23T01:10:53.944Z,470.00
2023-03-23T01:11:54.008Z,468.00
2023-03-23T01:12:54.085Z,469.00
2023-03-23T01:13:54.177Z,466.00
2023-03-23T01:14:54.232Z,465.00
2023-03-23T01:15:54.310Z,466.00
2023-03-23T01:16:54.427Z,469.00
2023-03-23T01:17:54.467Z,470.00
2023-03-23T01:18:54.508Z,472.00
2023-03-23T01:19:54.625Z,472.00
2023-03-23T01:20:54.701Z,473.00
2023-03-23T01:21:54.759Z,473.00
2023-03-23T01:22:54.814Z,472.00
2023-03-23T01:23:54.907Z,473.00
2023-03-23T01:24:54.954Z,470.00
2023-03-23T01:25:55.046Z,473.00
2023-03-23T01:26:55.101Z,473.00
2023-03-23T01:27:55.138Z,470.00
2023-03-23T01:28:55.250Z,469.00
2023-03-23T01:29:55.295Z,470.00
2023-03-23T01:30:55.417Z,472.00
2023-03-23T01:31:55.484Z,475.00
2023-03-23T01:32:55.611Z,473.00
2023-03-23T01:33:55.642Z,471.00
2023-03-23T01:34:55.692Z,471.00
2023-03-23T01:35:55.773Z,470.00
2023-03-23T01:36:55.883Z,468.00
2023-03-23T01:37:55.916Z,468.00
2023-03-23T01:38:56.008Z,466.00
2023-03-23T01:39:56.060Z,467.00
2023-03-23T01:40:56.162Z,467.00
2023-03-23T01:41:56.244Z,467.00
2023-03-23T01:42:56.322Z,467.00
2023-03-23T01:43:56.385Z,469.00
2023-03-23T01:44:56.469Z,471.00
2023-03-23T01:45:56.501Z,469.00
2023-03-23T01:46:56.631Z,468.00
2023-03-23T01:47:56.704Z,469.00
2023-03-23T01:48:56.743Z,466.00
2023-03-23T01:49:56.836Z,465.00
2023-03-23T01:50:56.886Z,466.00
2023-03-23T01:51:56.953Z,466.00
2023-03-23T01:52:57.058Z,469.00
2023-03-23T01:53:57.119Z,468.00
2023-03-23T01:54:57.180Z,469.00
2023-03-23T01:55:57.260Z,468.00
2023-03-23T01:56:57.369Z,467.00
2023-03-23T01:57:57.446Z,467.00
2023-03-23T01:58:57.522Z,466.00
2023-03-23T01:59:57.584Z,466.00
2023-03-23T02:00:57.674Z,468.00
2023-03-23T02:01:57.721Z,466.00
2023-03-23T02:02:57.800Z,468.00
2023-03-23T02:03:57.856Z,469.00
2023-03-23T02:04:57.907Z,467.00
2023-03-23T02:05:57.973Z,466.00
2023-03-23T02:06:58.049Z,464.00
2023-03-23T02:07:58.048Z,464.00
2023-03-23T02:08:58.186Z,464.00
2023-03-23T02:09:59.163Z,466.00
2023-03-23T02:10:58.194Z,469.00
2023-03-23T02:11:58.198Z,470.00
2023-03-23T02:12:58.201Z,470.00
2023-03-23T02:13:58.256Z,472.00
2023-03-23T02:14:58.274Z,471.00
2023-03-23T02:15:58.307Z,471.00
2023-03-23T02:16:58.310Z,468.00
2023-03-23T02:17:58.446Z,468.00
2023-03-23T02:27:59.058Z,470.00
2023-03-23T02:28:59.202Z,471.00
2023-03-23T02:29:59.261Z,471.00
2023-03-23T02:30:59.343Z,470.00
2023-03-23T02:31:59.415Z,471.00
2023-03-23T02:32:59.525Z,473.00
2023-03-23T02:33:59.578Z,477.00
2023-03-23T02:34:59.690Z,475.00
2023-03-23T02:35:59.766Z,473.00
2023-03-23T02:36:59.841Z,472.00
2023-03-23T02:37:59.913Z,470.00
2023-03-23T02:39:00.223Z,468.00
2023-03-23T02:48:00.740Z,474.00
2023-03-23T02:49:00.836Z,473.00
2023-03-23T02:50:00.923Z,472.00
2023-03-23T02:51:00.994Z,470.00
2023-03-23T02:52:01.093Z,468.00
2023-03-23T02:53:01.097Z,468.00
2023-03-23T02:54:01.213Z,468.00
2023-03-23T02:55:01.221Z,470.00
2023-03-23T02:56:01.276Z,472.00
2023-03-23T02:57:01.360Z,472.00
2023-03-23T02:58:01.391Z,473.00
2023-03-23T02:59:01.415Z,471.00
2023-03-23T03:00:01.499Z,471.00
2023-03-23T03:01:01.563Z,473.00
2023-03-23T03:02:01.569Z,474.00
2023-03-23T03:03:01.595Z,473.00
2023-03-23T03:04:01.659Z,472.00
2023-03-23T03:05:01.732Z,472.00
2023-03-23T03:06:01.767Z,470.00
2023-03-23T03:07:01.828Z,472.00
2023-03-23T03:08:01.879Z,473.00
2023-03-23T03:09:01.935Z,475.00
2023-03-23T03:10:01.978Z,475.00
2023-03-23T03:11:02.028Z,474.00
2023-03-23T03:12:02.075Z,474.00
2023-03-23T03:13:02.122Z,474.00
2023-03-23T03:14:02.182Z,473.00
2023-03-23T03:15:02.250Z,469.00
2023-03-23T03:16:02.281Z,471.00
2023-03-23T03:17:02.352Z,470.00
2023-03-23T03:18:02.385Z,469.00
2023-03-23T03:19:02.672Z,469.00
2023-03-23T03:27:02.845Z,471.00
2023-03-23T03:28:04.165Z,473.00
2023-03-23T03:29:02.962Z,472.00
2023-03-23T03:30:03.041Z,471.00
2023-03-23T03:31:03.065Z,471.00
2023-03-23T03:32:03.130Z,473.00
2023-03-23T03:33:03.178Z,473.00
2023-03-23T03:34:03.240Z,471.00
2023-03-23T03:35:03.260Z,471.00
2023-03-23T03:36:03.357Z,472.00
2023-03-23T03:37:03.394Z,474.00
2023-03-23T03:38:03.409Z,474.00
2023-03-23T03:39:03.487Z,474.00
2023-03-23T03:40:03.544Z,473.00
2023-03-23T03:41:03.594Z,472.00
2023-03-23T03:42:03.659Z,473.00
2023-03-23T03:43:03.668Z,472.00
2023-03-23T03:44:03.732Z,470.00
2023-03-23T03:45:03.797Z,470.00
2023-03-23T03:46:03.893Z,468.00
2023-03-23T03:47:03.928Z,470.00
2023-03-23T03:48:04.016Z,471.00
2023-03-23T03:49:04.086Z,469.00
2023-03-23T03:50:04.105Z,468.00
2023-03-23T03:51:04.212Z,471.00
2023-03-23T03:52:04.330Z,471.00
2023-03-23T03:53:04.373Z,473.00
2023-03-23T03:54:04.407Z,473.00
2023-03-23T03:55:04.488Z,473.00
2023-03-23T03:56:04.545Z,474.00
2023-03-23T03:57:04.612Z,475.00
2023-03-23T03:58:04.697Z,476.00
2023-03-23T03:59:21.154Z,474.00
2023-03-23T04:00:05.777Z,474.00
2023-03-23T04:01:04.839Z,470.00
2023-03-23T04:04:04.880Z,470.00
2023-03-23T04:05:04.951Z,471.00
2023-03-23T04:06:04.901Z,473.00
2023-03-23T04:07:04.943Z,475.00
2023-03-23T04:08:09.357Z,474.00
2023-03-23T04:09:07.860Z,473.00
2023-03-23T04:10:04.974Z,472.00
2023-03-23T04:11:04.988Z,472.00
2023-03-23T04:12:04.992Z,472.00
2023-03-23T04:13:05.018Z,471.00
2023-03-23T04:14:05.028Z,471.00
2023-03-23T04:15:06.385Z,473.00
2023-03-23T04:16:10.137Z,475.00
2023-03-23T04:17:06.101Z,478.00
2023-03-23T04:18:05.083Z,479.00
2023-03-23T04:19:05.122Z,477.00
2023-03-23T04:20:05.134Z,476.00
2023-03-23T04:21:05.134Z,476.00
2023-03-23T04:22:05.145Z,476.00
2023-03-23T04:23:05.167Z,476.00
2023-03-23T04:26:05.214Z,474.00
2023-03-23T04:27:05.261Z,474.00
2023-03-23T04:28:05.332Z,475.00
2023-03-23T04:29:05.405Z,474.00
2023-03-23T04:30:05.477Z,473.00
2023-03-23T04:31:06.296Z,471.00
2023-03-23T04:32:05.669Z,472.00
2023-03-23T04:33:05.710Z,472.00
2023-03-23T04:34:05.752Z,471.00
2023-03-23T04:35:12.714Z,470.00
2023-03-23T04:36:06.863Z,471.00
2023-03-23T04:40:05.940Z,471.00
2023-03-23T04:41:05.975Z,472.00
2023-03-23T04:42:05.989Z,474.00
2023-03-23T04:43:05.988Z,478.00
2023-03-23T04:44:06.022Z,478.00
2023-03-23T04:45:06.010Z,476.00
2023-03-23T04:46:06.013Z,476.00
2023-03-23T04:47:06.113Z,476.00
2023-03-23T04:48:06.192Z,476.00
2023-03-23T04:49:06.229Z,474.00
2023-03-23T04:50:06.295Z,473.00
2023-03-23T04:51:06.362Z,472.00
2023-03-23T04:52:06.437Z,472.00
2023-03-23T04:53:06.492Z,474.00
2023-03-23T04:54:06.553Z,477.00
2023-03-23T04:55:06.646Z,481.00
2023-03-23T04:56:06.698Z,479.00
2023-03-23T04:57:06.763Z,478.00
2023-03-23T04:58:06.819Z,478.00
2023-03-23T04:59:06.898Z,480.00
2023-03-23T05:00:06.974Z,479.00
2023-03-23T05:01:09.121Z,477.00
2023-03-23T05:02:14.268Z,477.00
2023-03-23T05:03:08.058Z,477.00
2023-03-23T05:04:07.068Z,478.00
2023-03-23T05:05:07.123Z,478.00
2023-03-23T05:06:07.127Z,478.00
2023-03-23T05:07:07.138Z,477.00
2023-03-23T05:08:07.137Z,476.00
2023-03-23T05:09:07.138Z,475.00
2023-03-23T05:10:07.171Z,474.00
2023-03-23T05:11:07.184Z,473.00
2023-03-23T05:12:07.292Z,473.00
2023-03-23T05:16:07.408Z,470.00
2023-03-23T05:17:07.451Z,473.00
2023-03-23T05:18:07.534Z,475.00
2023-03-23T05:19:07.581Z,475.00
2023-03-23T05:20:07.650Z,475.00
2023-03-23T05:21:07.728Z,476.00
2023-03-23T05:22:07.801Z,478.00
2023-03-23T05:24:07.787Z,481.00
2023-03-23T05:25:07.832Z,481.00
2023-03-23T05:26:07.841Z,479.00
2023-03-23T05:27:07.842Z,480.00
2023-03-23T05:31:07.923Z,480.00
2023-03-23T05:34:07.973Z,481.00
2023-03-23T05:35:07.974Z,480.00
2023-03-23T05:36:08.021Z,481.00
2023-03-23T05:37:08.037Z,480.00
2023-03-23T05:38:08.020Z,482.00
2023-03-23T05:39:08.051Z,481.00
2023-03-23T05:40:08.054Z,482.00
2023-03-23T05:41:08.078Z,480.00
2023-03-23T05:42:08.091Z,479.00
2023-03-23T05:43:08.198Z,481.00
2023-03-23T05:45:08.124Z,481.00
2023-03-23T05:46:08.164Z,483.00
2023-03-23T05:47:08.179Z,483.00
2023-03-23T05:56:08.300Z,485.00
2023-03-23T05:58:08.308Z,488.00
2023-03-23T05:59:08.305Z,485.00
2023-03-23T06:00:08.337Z,486.00
2023-03-23T06:03:08.461Z,486.00
2023-03-23T06:04:08.433Z,486.00
2023-03-23T06:05:08.460Z,485.00
2023-03-23T06:06:08.485Z,487.00
2023-03-23T06:07:08.496Z,488.00
2023-03-23T06:08:08.547Z,487.00
2023-03-23T06:09:08.576Z,486.00
2023-03-23T06:14:08.624Z,486.00
2023-03-23T06:15:08.658Z,486.00
2023-03-23T06:16:08.678Z,488.00
2023-03-23T06:17:08.709Z,485.00
2023-03-23T06:18:08.714Z,485.00
2023-03-23T06:19:08.713Z,485.00
2023-03-23T06:20:08.754Z,483.00
2023-03-23T06:21:08.806Z,485.00
2023-03-23T06:22:08.772Z,483.00
2023-03-23T06:23:08.785Z,485.00
2023-03-23T06:24:08.829Z,485.00
2023-03-23T06:25:08.830Z,486.00
2023-03-23T06:26:08.864Z,486.00
2023-03-23T06:27:08.865Z,486.00
2023-03-23T06:28:08.932Z,487.00
2023-03-23T06:29:08.929Z,490.00
2023-03-23T06:30:09.060Z,491.00
2023-03-23T06:32:08.971Z,494.00
2023-03-23T06:33:08.983Z,523.00
2023-03-23T06:34:09.060Z,541.00
2023-03-23T06:35:09.572Z,561.00
2023-03-23T06:36:09.285Z,562.00
2023-03-23T06:37:09.256Z,565.00
2023-03-23T06:38:09.301Z,601.00
2023-03-23T06:39:09.363Z,602.00
2023-03-23T06:40:09.559Z,598.00
2023-03-23T06:41:09.836Z,607.00
2023-03-23T06:44:09.707Z,613.00
2023-03-23T06:45:09.751Z,638.00
2023-03-23T06:46:16.872Z,644.00
2023-03-23T06:47:09.887Z,639.00
2023-03-23T06:48:09.915Z,730.00
2023-03-23T06:49:10.102Z,706.00
2023-03-23T06:51:10.003Z,741.00
2023-03-23T06:52:10.027Z,766.00
2023-03-23T06:53:10.087Z,773.00
2023-03-23T06:54:10.051Z,774.00
2023-03-23T06:55:10.234Z,767.00
2023-03-23T06:58:10.166Z,756.00
2023-03-23T06:59:10.170Z,768.00
2023-03-23T07:00:10.495Z,832.00
2023-03-23T07:03:10.279Z,912.00
2023-03-23T07:04:10.273Z,933.00
2023-03-23T07:05:10.362Z,945.00
2023-03-23T07:07:10.343Z,952.00
2023-03-23T07:08:10.323Z,957.00
2023-03-23T07:09:10.352Z,959.00
2023-03-23T07:10:10.351Z,957.00
2023-03-23T07:11:12.390Z,961.00
2023-03-23T07:14:10.447Z,1001.00
2023-03-23T07:17:10.470Z,958.00
2023-03-23T07:18:10.471Z,952.00
2023-03-23T07:19:10.465Z,950.00
2023-03-23T07:20:10.528Z,950.00
2023-03-23T07:21:10.704Z,976.00
2023-03-23T07:22:10.509Z,1016.00
2023-03-23T07:23:10.512Z,899.00
2023-03-23T07:24:10.505Z,908.00
2023-03-23T07:25:10.599Z,907.00
2023-03-23T07:31:10.594Z,904.00
2023-03-23T07:32:10.595Z,884.00
2023-03-23T07:33:10.617Z,865.00
2023-03-23T07:34:10.630Z,866.00
2023-03-23T07:35:10.975Z,876.00
2023-03-23T07:36:11.674Z,928.00
2023-03-23T07:37:10.667Z,917.00
2023-03-23T07:38:10.715Z,890.00
2023-03-23T07:39:10.726Z,774.00
2023-03-23T07:40:10.758Z,747.00
2023-03-23T07:41:11.761Z,730.00
2023-03-23T07:43:10.752Z,789.00
2023-03-23T07:44:10.762Z,791.00
2023-03-23T07:45:10.800Z,828.00
2023-03-23T07:46:10.847Z,840.00
2023-03-23T07:47:10.811Z,844.00
2023-03-23T07:50:10.826Z,763.00
2023-03-23T07:53:10.900Z,697.00
2023-03-23T07:54:10.920Z,697.00
2023-03-23T07:55:10.926Z,697.00
2023-03-23T07:56:10.931Z,694.00
2023-03-23T07:57:10.967Z,693.00
2023-03-23T07:58:11.054Z,699.00
2023-03-23T07:59:11.104Z,705.00
2023-03-23T08:00:11.215Z,710.00
2023-03-23T08:01:11.267Z,718.00
2023-03-23T08:02:11.381Z,719.00
2023-03-23T08:03:11.395Z,710.00
2023-03-23T08:04:11.452Z,697.00
2023-03-23T08:05:11.559Z,683.00
2023-03-23T08:06:11.613Z,673.00
2023-03-23T08:07:11.657Z,669.00
2023-03-23T08:08:12.680Z,728.00
2023-03-23T08:13:11.798Z,737.00
2023-03-23T08:14:11.844Z,731.00
2023-03-23T08:15:11.911Z,723.00
2023-03-23T08:16:12.150Z,686.00
2023-03-23T08:19:12.174Z,663.00
2023-03-23T08:20:12.257Z,670.00
2023-03-23T08:21:12.367Z,685.00
2023-03-23T08:22:12.437Z,696.00
2023-03-23T08:23:12.513Z,706.00
2023-03-23T08:24:12.557Z,714.00
2023-03-23T08:25:12.624Z,718.00
2023-03-23T08:26:12.676Z,733.00
2023-03-23T08:27:12.794Z,734.00
2023-03-23T08:28:12.822Z,735.00
2023-03-23T08:29:12.945Z,735.00
2023-03-23T08:30:13.021Z,768.00
2023-03-23T08:31:13.163Z,751.00
2023-03-23T08:32:13.083Z,799.00
2023-03-23T08:33:13.180Z,813.00
2023-03-23T08:34:13.880Z,825.00
2023-03-23T08:35:13.310Z,830.00
2023-03-23T08:36:13.429Z,838.00
2023-03-23T08:37:13.471Z,864.00
2023-03-23T08:38:13.527Z,868.00
2023-03-23T08:45:13.866Z,867.00
2023-03-23T08:46:13.930Z,922.00
2023-03-23T08:47:13.922Z,870.00
2023-03-23T08:48:14.058Z,901.00
2023-03-23T08:49:14.069Z,909.00
2023-03-23T08:52:14.122Z,631.00
2023-03-23T08:53:14.250Z,607.00
2023-03-23T08:54:14.291Z,590.00
2023-03-23T08:55:14.379Z,590.00
2023-03-23T08:56:14.529Z,545.00
2023-03-23T08:57:14.518Z,536.00
2023-03-23T08:58:14.554Z,528.00
2023-03-23T08:59:14.673Z,529.00
2023-03-23T09:00:14.662Z,535.00
2023-03-23T09:01:14.759Z,542.00
2023-03-23T09:02:15.173Z,537.00
2023-03-23T09:09:15.171Z,557.00
2023-03-23T09:10:15.226Z,547.00
2023-03-23T09:11:15.297Z,539.00
2023-03-23T09:12:15.403Z,538.00
2023-03-23T09:13:15.499Z,539.00
2023-03-23T09:14:16.414Z,541.00
2023-03-23T09:18:15.537Z,578.00
2023-03-23T09:21:18.931Z,572.00
2023-03-23T09:22:15.624Z,567.00
2023-03-23T09:23:15.634Z,565.00
2023-03-23T09:24:15.739Z,565.00
2023-03-23T09:28:15.753Z,546.00
2023-03-23T09:29:15.773Z,545.00
2023-03-23T09:30:15.802Z,540.00
2023-03-23T09:31:16.213Z,539.00
2023-03-23T09:32:15.860Z,540.00
2023-03-23T09:33:15.897Z,659.00
2023-03-23T09:34:15.898Z,702.00
2023-03-23T09:35:15.900Z,734.00
2023-03-23T09:36:15.971Z,774.00
2023-03-23T09:37:16.152Z,778.00
2023-03-23T09:39:15.962Z,810.00
2023-03-23T09:40:15.981Z,825.00
2023-03-23T09:41:15.997Z,829.00
2023-03-23T09:42:16.193Z,818.00
2023-03-23T09:43:16.041Z,705.00
2023-03-23T09:44:16.048Z,710.00
2023-03-23T09:45:16.083Z,704.00
2023-03-23T09:50:16.174Z,721.00
2023-03-23T09:53:16.199Z,836.00
2023-03-23T09:54:16.250Z,840.00
2023-03-23T09:59:16.281Z,888.00
2023-03-23T10:00:16.344Z,895.00
2023-03-23T10:03:16.352Z,845.00
2023-03-23T10:04:16.419Z,848.00
2023-03-23T10:05:16.417Z,847.00
2023-03-23T10:06:16.473Z,846.00
2023-03-23T10:07:16.500Z,858.00
2023-03-23T10:08:16.516Z,960.00
2023-03-23T10:09:16.579Z,955.00
2023-03-23T10:10:16.621Z,976.00
2023-03-23T10:11:16.641Z,1013.00
2023-03-23T10:12:16.723Z,1033.00
2023-03-23T10:13:16.687Z,897.00
2023-03-23T10:14:16.714Z,1002.00
2023-03-23T10:15:16.803Z,1018.00
2023-03-23T10:16:16.772Z,1025.00
2023-03-23T10:17:16.871Z,1013.00
2023-03-23T10:18:16.850Z,1007.00
2023-03-23T10:19:16.872Z,1007.00
2023-03-23T10:20:16.946Z,1001.00
2023-03-23T10:21:16.939Z,987.00
2023-03-23T10:22:17.166Z,976.00
2023-03-23T10:23:17.015Z,986.00
2023-03-23T10:29:17.202Z,883.00
2023-03-23T10:30:17.219Z,789.00
2023-03-23T10:31:17.197Z,790.00
2023-03-23T10:32:17.213Z,756.00
2023-03-23T10:33:17.234Z,744.00
2023-03-23T10:34:17.286Z,738.00
2023-03-23T10:35:17.301Z,741.00
2023-03-23T10:36:17.357Z,735.00
2023-03-23T10:37:17.713Z,732.00
2023-03-23T10:38:17.366Z,766.00
2023-03-23T10:39:17.391Z,735.00
2023-03-23T10:40:17.442Z,746.00
2023-03-23T10:41:18.472Z,732.00
2023-03-23T10:48:17.544Z,821.00
2023-03-23T10:49:17.500Z,781.00
2023-03-23T10:50:18.203Z,744.00
2023-03-23T10:51:17.566Z,660.00
2023-03-23T10:52:18.216Z,650.00
2023-03-23T10:53:17.536Z,631.00
2023-03-23T10:54:17.542Z,625.00
2023-03-23T10:55:17.624Z,628.00
2023-03-23T11:00:17.620Z,657.00
2023-03-23T11:01:17.639Z,657.00
2023-03-23T11:02:29.264Z,655.00
2023-03-23T11:03:18.673Z,678.00
2023-03-23T11:07:17.732Z,671.00
2023-03-23T11:08:17.773Z,671.00
2023-03-23T11:09:17.791Z,671.00
2023-03-23T11:12:19.425Z,689.00
2023-03-23T11:14:17.821Z,693.00
2023-03-23T11:15:17.824Z,688.00
2023-03-23T11:16:17.804Z,684.00
2023-03-23T11:17:17.822Z,688.00
2023-03-23T11:18:17.855Z,684.00
2023-03-23T11:19:17.857Z,617.00
2023-03-23T11:26:17.935Z,570.00
2023-03-23T11:27:17.970Z,585.00
2023-03-23T11:31:18.051Z,632.00
2023-03-23T11:32:18.215Z,610.00
2023-03-23T11:34:18.206Z,614.00
2023-03-23T11:35:18.279Z,609.00
2023-03-23T11:36:18.302Z,621.00
2023-03-23T11:37:18.736Z,740.00
2023-03-23T11:39:18.485Z,735.00
2023-03-23T11:40:18.508Z,695.00
2023-03-23T11:41:18.568Z,693.00
2023-03-23T11:42:18.640Z,587.00
2023-03-23T11:43:18.727Z,588.00
2023-03-23T11:44:18.752Z,575.00
2023-03-23T11:45:18.826Z,578.00
2023-03-23T11:46:18.840Z,574.00
2023-03-23T11:47:18.913Z,559.00
2023-03-23T11:48:18.982Z,551.00
2023-03-23T11:49:25.220Z,542.00
2023-03-23T11:50:20.035Z,535.00
2023-03-23T11:51:19.045Z,528.00
2023-03-23T11:52:19.051Z,508.00
2023-03-23T11:53:19.219Z,506.00
2023-03-23T11:54:19.090Z,507.00
2023-03-23T11:55:19.112Z,510.00
2023-03-23T11:56:19.093Z,501.00
2023-03-23T11:57:19.106Z,499.00
2023-03-23T11:58:19.157Z,499.00
2023-03-23T11:59:19.171Z,496.00
2023-03-23T12:00:19.234Z,490.00
2023-03-23T12:01:19.903Z,485.00
2023-03-23T12:02:19.383Z,484.00
2023-03-23T12:03:19.736Z,483.00
2023-03-23T12:09:19.900Z,489.00
2023-03-23T12:10:25.529Z,493.00
2023-03-23T12:11:20.976Z,491.00
2023-03-23T12:13:21.068Z,493.00
2023-03-23T12:14:21.370Z,493.00
2023-03-23T12:15:20.021Z,491.00
2023-03-23T12:16:20.036Z,493.00
2023-03-23T12:17:20.017Z,497.00
2023-03-23T12:18:20.092Z,504.00
2023-03-23T12:19:20.098Z,512.00
2023-03-23T12:20:20.067Z,514.00
2023-03-23T12:21:20.095Z,521.00
2023-03-23T12:22:20.139Z,527.00
2023-03-23T12:23:20.204Z,533.00
2023-03-23T12:24:20.268Z,543.00
2023-03-23T12:25:20.357Z,550.00
2023-03-23T12:26:20.388Z,554.00
2023-03-23T12:27:20.431Z,558.00
2023-03-23T12:28:20.738Z,561.00
2023-03-23T12:29:20.564Z,565.00
2023-03-23T12:30:20.586Z,566.00
2023-03-23T12:31:20.706Z,574.00
2023-03-23T12:32:20.706Z,586.00
2023-03-23T12:33:21.251Z,603.00
2023-03-23T12:36:20.960Z,666.00
2023-03-23T12:37:20.975Z,672.00
2023-03-23T12:38:21.029Z,678.00
2023-03-23T12:39:21.081Z,681.00
2023-03-23T12:40:21.106Z,681.00
2023-03-23T12:41:21.127Z,679.00
2023-03-23T12:42:21.205Z,675.00
2023-03-23T12:43:21.230Z,639.00
2023-03-23T12:44:21.239Z,639.00
2023-03-23T12:45:21.287Z,634.00
2023-03-23T12:46:21.318Z,628.00
2023-03-23T12:47:21.367Z,622.00
2023-03-23T12:48:21.419Z,624.00
2023-03-23T12:49:21.459Z,631.00
2023-03-23T12:50:21.513Z,625.00
2023-03-23T12:51:21.549Z,618.00
2023-03-23T12:52:21.612Z,611.00
2023-03-23T12:53:21.762Z,602.00
2023-03-23T12:55:21.740Z,598.00
2023-03-23T12:56:21.821Z,589.00
2023-03-23T12:57:21.825Z,582.00
2023-03-23T12:58:21.884Z,579.00
2023-03-23T12:59:21.939Z,578.00
2023-03-23T13:00:22.034Z,577.00
2023-03-23T13:01:22.029Z,574.00
2023-03-23T13:02:22.085Z,570.00
2023-03-23T13:03:22.148Z,570.00
2023-03-23T13:04:22.207Z,565.00
2023-03-23T13:05:22.259Z,559.00
2023-03-23T13:06:22.313Z,555.00
2023-03-23T13:07:23.313Z,556.00
2023-03-23T13:11:22.371Z,548.00
2023-03-23T13:12:22.422Z,546.00
2023-03-23T13:13:22.427Z,547.00
2023-03-23T13:14:22.430Z,548.00
2023-03-23T13:15:22.430Z,548.00
2023-03-23T13:16:22.447Z,550.00
2023-03-23T13:17:22.454Z,554.00
2023-03-23T13:18:22.510Z,556.00
2023-03-23T13:21:22.528Z,558.00
2023-03-23T13:24:22.559Z,562.00
2023-03-23T13:25:22.549Z,563.00
2023-03-23T13:26:22.588Z,565.00
2023-03-23T13:27:22.623Z,566.00
2023-03-23T13:28:22.604Z,569.00
2023-03-23T13:29:22.633Z,572.00
2023-03-23T13:30:22.644Z,572.00
2023-03-23T13:31:22.660Z,567.00
2023-03-23T13:32:22.655Z,567.00
2023-03-23T13:33:22.700Z,566.00
2023-03-23T13:34:22.724Z,563.00
2023-03-23T13:35:22.701Z,563.00
2023-03-23T13:36:22.726Z,559.00
2023-03-23T13:37:22.815Z,569.00
2023-03-23T13:38:22.718Z,579.00
2023-03-23T13:39:22.771Z,589.00
2023-03-23T13:40:22.759Z,598.00
2023-03-23T13:41:22.788Z,598.00
2023-03-23T13:42:22.800Z,603.00
2023-03-23T13:43:22.825Z,605.00
2023-03-23T13:44:22.834Z,611.00
2023-03-23T13:45:22.897Z,614.00
2023-03-23T13:46:22.904Z,611.00
2023-03-23T13:47:22.888Z,606.00
2023-03-23T13:48:22.914Z,603.00
2023-03-23T13:49:22.985Z,600.00
2023-03-23T13:50:22.988Z,593.00
2023-03-23T13:51:23.000Z,590.00
2023-03-23T13:52:22.995Z,596.00
2023-03-23T13:53:23.103Z,611.00
2023-03-23T13:54:24.051Z,619.00
2023-03-23T13:55:23.073Z,620.00
2023-03-23T13:56:23.091Z,616.00
2023-03-23T13:58:23.111Z,615.00
2023-03-23T14:00:23.120Z,615.00
2023-03-23T14:01:23.118Z,616.00
2023-03-23T14:02:23.150Z,615.00
2023-03-23T14:03:23.174Z,616.00
2023-03-23T14:04:23.181Z,614.00
2023-03-23T14:05:23.166Z,610.00
2023-03-23T14:06:23.166Z,609.00
2023-03-23T14:07:23.193Z,608.00
2023-03-23T14:08:23.213Z,606.00
2023-03-23T14:09:23.231Z,607.00
2023-03-23T14:10:23.261Z,608.00
2023-03-23T14:14:23.290Z,600.00
2023-03-23T14:15:23.327Z,598.00
2023-03-23T14:16:23.306Z,597.00
2023-03-23T14:17:23.328Z,593.00
2023-03-23T14:18:23.345Z,592.00
2023-03-23T14:19:23.349Z,589.00
2023-03-23T14:23:23.405Z,590.00
2023-03-23T14:24:23.411Z,591.00
2023-03-23T14:25:23.442Z,587.00
2023-03-23T14:30:23.552Z,573.00
2023-03-23T14:31:23.482Z,570.00
2023-03-23T14:32:23.521Z,570.00
2023-03-23T14:33:23.539Z,571.00
2023-03-23T14:34:23.540Z,568.00
2023-03-23T14:35:23.588Z,567.00
2023-03-23T14:36:23.631Z,568.00
2023-03-23T14:37:23.607Z,567.00
2023-03-23T14:38:23.632Z,568.00
2023-03-23T14:39:23.701Z,569.00
2023-03-23T14:40:23.692Z,568.00
2023-03-23T14:41:23.741Z,565.00
2023-03-23T14:42:23.744Z,566.00
2023-03-23T14:43:23.799Z,565.00
2023-03-23T14:48:24.791Z,552.00
2023-03-23T14:49:23.896Z,550.00
2023-03-23T14:50:23.966Z,549.00
2023-03-23T14:53:23.992Z,549.00
2023-03-23T14:54:24.026Z,548.00
2023-03-23T14:55:24.038Z,547.00
2023-03-23T14:56:24.056Z,546.00
2023-03-23T14:57:24.038Z,544.00
2023-03-23T14:58:24.095Z,542.00
2023-03-23T14:59:24.112Z,538.00
2023-03-23T15:00:24.135Z,535.00
2023-03-23T15:01:24.144Z,533.00
2023-03-23T15:02:24.147Z,531.00
2023-03-23T15:03:24.188Z,528.00
2023-03-23T15:04:24.200Z,526.00
2023-03-23T15:09:24.297Z,523.00
2023-03-23T15:10:24.345Z,524.00
2023-03-23T15:13:24.368Z,524.00
2023-03-23T15:14:24.378Z,527.00
2023-03-23T15:15:25.229Z,524.00
2023-03-23T15:23:24.608Z,511.00
2023-03-23T15:24:25.297Z,511.00
2023-03-23T15:25:24.630Z,513.00
2023-03-23T15:31:24.760Z,511.00
2023-03-23T15:32:24.775Z,509.00
2023-03-23T15:33:24.769Z,510.00
2023-03-23T15:34:24.769Z,508.00
2023-03-23T15:37:24.836Z,501.00
2023-03-23T15:39:24.868Z,503.00
2023-03-23T15:41:24.822Z,504.00
2023-03-23T15:42:26.373Z,505.00
2023-03-23T15:43:25.853Z,507.00
2023-03-23T15:47:24.926Z,508.00
2023-03-23T15:51:24.899Z,503.00
2023-03-23T15:52:24.901Z,503.00
2023-03-23T15:53:24.920Z,502.00
2023-03-23T15:54:24.912Z,500.00
2023-03-23T15:55:24.932Z,497.00
2023-03-23T15:56:24.990Z,496.00
2023-03-23T15:57:24.949Z,494.00
2023-03-23T15:58:24.983Z,491.00
2023-03-23T15:59:24.959Z,488.00
2023-03-23T16:00:24.977Z,485.00
2023-03-23T16:01:25.029Z,484.00
2023-03-23T16:02:25.031Z,485.00
2023-03-23T16:03:24.993Z,485.00
2023-03-23T16:04:25.006Z,485.00
2023-03-23T16:09:25.164Z,481.00
2023-03-23T16:10:25.147Z,481.00
2023-03-23T16:11:25.206Z,484.00
2023-03-23T16:12:25.238Z,482.00
2023-03-23T16:13:25.247Z,483.00
2023-03-23T16:14:25.271Z,481.00
2023-03-23T16:15:25.326Z,480.00
2023-03-23T16:16:25.372Z,482.00
2023-03-23T16:17:25.353Z,480.00
2023-03-23T16:18:25.395Z,480.00
2023-03-23T16:19:25.489Z,479.00
2023-03-23T16:20:25.460Z,479.00
2023-03-23T16:21:25.489Z,475.00
2023-03-23T16:22:25.534Z,475.00
2023-03-23T16:23:25.525Z,476.00
2023-03-23T16:24:25.589Z,479.00
2023-03-23T16:25:25.628Z,477.00
2023-03-23T16:26:25.658Z,478.00
2023-03-23T16:27:25.688Z,480.00
2023-03-23T16:28:25.752Z,481.00
2023-03-23T16:29:46.870Z,479.00
2023-03-23T16:30:26.780Z,479.00
2023-03-23T16:32:25.845Z,474.00
2023-03-23T16:34:25.827Z,474.00